Terminal Aerodrome Forecast
Issued by NWS Cleveland, OH

Home | Current Version | Previous Version | Text Only | Print | Product List | Glossary Off
Versions: 1 2 3 4 5 6 7 8 9 10 11 12 13 14 15 16

080
FTUS41 KCLE 230541
TAFYNG
TAF
KYNG 230541Z 2306/2406 21008KT P6SM BKN200
     FM230700 20010KT P6SM BKN025 OVC040
     FM230900 20010KT P6SM BKN015 OVC025
      TEMPO 2309/2311 5SM -SHRA OVC008
     FM231100 21012KT P6SM BKN008 OVC015
     FM231500 22015G22KT 5SM -SHRA BR VCTS OVC015CB
      TEMPO 2316/2319 24012G20KT 1SM TSRA OVC005CB
     FM232200 24010KT 5SM -SHRA OVC018
     FM240100 25007KT P6SM OVC018=

USA.gov is the U.S. government's official web portal to all federal, state and local government web resources and services.